Time;durP1;ratioP1;P1;durP2;ratioP2;P2;SDS_P1;SDS_P2;PMS_P1;PMS_P2;Temp;Humidity;BMP_temperature;BMP_pressure;BME280_temperature;BME280_humidity;BME280_pressure;Samples;Min_cycle;Max_cycle;Signal;HPM_P1;HPM_P2
2022/12/12 00:00:24;;;;;;;34.13;21.67;;;1.30;99.90;;;;;;5114964;28;20549;-84
2022/12/12 00:02:49;;;;;;;35.23;21.63;;;1.10;99.90;;;;;;5115430;28;20058;-84
2022/12/12 00:05:17;;;;;;;32.43;20.70;;;1.70;99.90;;;;;;5081254;28;20445;-84
2022/12/12 00:07:44;;;;;;;33.58;21.25;;;1.20;99.90;;;;;;5098619;28;20092;-84
2022/12/12 00:10:10;;;;;;;31.98;20.50;;;1.60;99.90;;;;;;5097652;28;20094;-85
2022/12/12 00:12:36;;;;;;;30.55;20.77;;;1.40;99.90;;;;;;5115155;28;20487;-84
2022/12/12 00:15:01;;;;;;;31.00;20.10;;;2.00;99.90;;;;;;5097686;28;20043;-85
2022/12/12 00:17:27;;;;;;;31.97;21.20;;;1.40;99.90;;;;;;5114913;28;20155;-85
2022/12/12 00:19:53;;;;;;;36.13;21.70;;;2.00;99.90;;;;;;5097750;28;20513;-85
2022/12/12 00:22:19;;;;;;;30.53;20.80;;;1.30;99.90;;;;;;5114526;28;20050;-85
2022/12/12 00:24:44;;;;;;;30.97;19.80;;;1.70;99.90;;;;;;5098326;28;20293;-85
2022/12/12 00:27:10;;;;;;;34.97;21.77;;;1.50;99.90;;;;;;5114705;28;20085;-85
2022/12/12 00:29:36;;;;;;;30.87;20.70;;;2.40;99.90;;;;;;5098053;28;20132;-84
2022/12/12 00:32:01;;;;;;;29.40;20.50;;;1.80;99.90;;;;;;5115001;28;20069;-84
2022/12/12 00:34:27;;;;;;;31.23;20.87;;;1.70;99.90;;;;;;5114639;28;20205;-85
2022/12/12 00:36:53;;;;;;;33.00;22.27;;;2.40;99.90;;;;;;5114821;28;20048;-85
2022/12/12 00:39:18;;;;;;;31.60;19.77;;;1.70;99.90;;;;;;5080495;28;20066;-85
2022/12/12 00:41:44;;;;;;;31.17;19.73;;;2.10;99.90;;;;;;5097447;28;20127;-85
2022/12/12 00:44:11;;;;;;;31.23;20.40;;;1.60;99.90;;;;;;5080848;28;20036;-85
2022/12/12 00:46:36;;;;;;;30.58;20.15;;;1.60;99.90;;;;;;5097317;28;20581;-85
2022/12/12 00:49:02;;;;;;;31.00;19.83;;;1.30;99.90;;;;;;5114506;28;20134;-85
2022/12/12 00:51:29;;;;;;;32.13;20.57;;;1.30;99.90;;;;;;5079574;28;20044;-85
2022/12/12 00:53:58;;;;;;;31.98;20.13;;;1.40;99.90;;;;;;5114615;28;20061;-84
2022/12/12 00:56:25;;;;;;;32.58;21.38;;;1.30;99.90;;;;;;5114057;28;20060;-85
2022/12/12 00:58:51;;;;;;;32.03;21.48;;;1.80;99.90;;;;;;5097235;28;20104;-85
2022/12/12 01:01:21;;;;;;;34.13;21.23;;;2.20;99.90;;;;;;5096839;28;20039;-86
2022/12/12 01:03:47;;;;;;;35.33;22.35;;;1.40;99.90;;;;;;5097159;28;20164;-85
2022/12/12 01:06:14;;;;;;;33.15;21.52;;;1.60;99.90;;;;;;5114223;28;20048;-87
2022/12/12 01:08:40;;;;;;;32.92;21.17;;;1.50;99.90;;;;;;5113849;28;20479;-85
2022/12/12 01:11:07;;;;;;;32.20;20.88;;;1.30;99.90;;;;;;5113279;28;20407;-85
2022/12/12 01:13:33;;;;;;;33.08;21.40;;;2.30;99.90;;;;;;5080011;28;20043;-85
2022/12/12 01:15:59;;;;;;;32.25;20.05;;;2.60;99.90;;;;;;5097066;28;20040;-85
2022/12/12 01:18:25;;;;;;;30.13;20.03;;;1.50;99.90;;;;;;5130673;27;20044;-85
2022/12/12 01:20:51;;;;;;;30.37;19.70;;;2.30;99.90;;;;;;5096600;28;20075;-85
2022/12/12 01:23:17;;;;;;;30.50;20.15;;;2.60;99.90;;;;;;5096538;28;20395;-86
2022/12/12 01:25:42;;;;;;;31.30;21.00;;;2.60;99.90;;;;;;5114817;28;20069;-85
2022/12/12 01:28:08;;;;;;;29.80;20.10;;;1.70;99.90;;;;;;5080064;28;20039;-85
2022/12/12 01:30:34;;;;;;;31.07;20.60;;;1.80;99.90;;;;;;5113483;28;20059;-85
2022/12/12 01:33:00;;;;;;;29.02;19.17;;;1.40;99.90;;;;;;5113553;28;20048;-86
2022/12/12 01:35:26;;;;;;;30.17;19.67;;;2.40;99.90;;;;;;5113047;28;20048;-85
2022/12/12 01:37:53;;;;;;;30.77;20.73;;;2.30;99.90;;;;;;5096749;28;20074;-85
2022/12/12 01:40:22;;;;;;;32.50;21.05;;;1.30;99.90;;;;;;5096190;28;20050;-86
2022/12/12 01:42:48;;;;;;;34.08;19.67;;;1.40;99.90;;;;;;5113368;28;20480;-85
2022/12/12 01:45:51;;;;;;;32.38;20.63;;;1.50;99.90;;;;;;5113514;28;20375;-85
2022/12/12 01:48:18;;;;;;;29.23;19.02;;;1.20;99.90;;;;;;5113502;28;20067;-85
2022/12/12 01:50:45;;;;;;;32.58;20.65;;;1.20;99.90;;;;;;5113370;28;20055;-85
2022/12/12 01:53:14;;;;;;;30.67;19.75;;;1.70;99.90;;;;;;5079526;28;20048;-86
2022/12/12 01:55:41;;;;;;;31.35;20.70;;;1.30;99.90;;;;;;5113299;28;20078;-85
2022/12/12 01:58:06;;;;;;;33.38;21.17;;;1.70;99.90;;;;;;5114166;28;20050;-85
2022/12/12 02:00:32;;;;;;;29.83;19.70;;;1.30;99.90;;;;;;5079100;28;20043;-86
2022/12/12 02:02:58;;;;;;;29.03;19.30;;;1.40;99.90;;;;;;5112997;28;20066;-86
2022/12/12 02:05:40;;;;;;;30.67;19.90;;;1.80;99.90;;;;;;5095947;28;20054;-86
2022/12/12 02:08:07;;;;;;;30.60;19.48;;;1.80;99.90;;;;;;5113154;28;20051;-85
2022/12/12 02:10:33;;;;;;;30.92;19.25;;;1.60;99.90;;;;;;5112559;28;20059;-86
2022/12/12 02:13:12;;;;;;;33.20;21.00;;;1.80;99.90;;;;;;5096135;28;20078;-86
2022/12/12 02:15:49;;;;;;;31.40;20.20;;;1.80;99.90;;;;;;5112921;28;20408;-86
2022/12/12 02:19:00;;;;;;;33.67;20.23;;;1.30;99.90;;;;;;5113165;28;20043;-86
2022/12/12 02:21:31;;;;;;;30.85;19.50;;;1.50;99.90;;;;;;5088472;28;20130;-86
2022/12/12 02:24:03;;;;;;;30.70;19.58;;;1.70;99.90;;;;;;5096007;28;20051;-86
2022/12/12 02:26:52;;;;;;;31.10;20.08;;;1.40;99.90;;;;;;5095658;28;20059;-86
2022/12/12 02:29:56;;;;;;;31.10;20.52;;;1.40;99.90;;;;;;5112842;28;20051;-85
2022/12/12 02:32:31;;;;;;;30.98;19.20;;;1.50;99.90;;;;;;5112738;28;20043;-85
2022/12/12 02:35:19;;;;;;;35.35;19.85;;;1.40;99.90;;;;;;5130207;27;20058;-86
2022/12/12 02:37:57;;;;;;;27.30;18.60;;;1.80;99.90;;;;;;5095511;28;20047;-85
2022/12/12 02:40:25;;;;;;;33.92;20.70;;;1.50;99.90;;;;;;5112838;28;20419;-86
2022/12/12 02:43:03;;;;;;;34.75;20.55;;;1.70;99.90;;;;;;5112840;28;20039;-86
2022/12/12 02:45:49;;;;;;;29.95;19.23;;;1.90;99.90;;;;;;5095400;28;20051;-86
2022/12/12 02:48:39;;;;;;;28.42;18.55;;;1.60;99.90;;;;;;5112798;28;20098;-85
2022/12/12 02:51:09;;;;;;;30.70;19.55;;;1.50;99.90;;;;;;5095648;28;20498;-85
2022/12/12 02:53:35;;;;;;;31.35;19.95;;;1.50;99.90;;;;;;5112202;28;20126;-86
2022/12/12 02:56:24;;;;;;;32.30;20.30;;;2.20;99.90;;;;;;5113951;28;20093;-86
2022/12/12 02:58:50;;;;;;;27.67;19.00;;;1.50;99.90;;;;;;5094645;28;20108;-86
2022/12/12 03:01:48;;;;;;;31.17;20.07;;;1.60;99.90;;;;;;5095439;28;20044;-86
2022/12/12 03:07:51;;;;;;;28.67;18.88;;;1.70;99.90;;;;;;5112581;28;20087;-85
2022/12/12 03:10:44;;;;;;;32.47;20.40;;;1.50;99.90;;;;;;5094959;28;20059;-85
2022/12/12 03:13:27;;;;;;;28.85;19.40;;;1.50;99.90;;;;;;5096475;28;20108;-85
2022/12/12 03:16:11;;;;;;;30.02;19.80;;;1.50;99.90;;;;;;5099518;28;20052;-85
2022/12/12 03:18:46;;;;;;;26.92;19.17;;;1.50;99.90;;;;;;5099228;28;20105;-87
2022/12/12 03:21:20;;;;;;;32.05;19.58;;;1.40;99.90;;;;;;5099083;28;20044;-86
2022/12/12 03:23:53;;;;;;;29.60;19.17;;;2.40;99.90;;;;;;5116031;28;20051;-85
2022/12/12 03:26:32;;;;;;;29.20;18.75;;;1.60;99.90;;;;;;5116098;28;20076;-85
2022/12/12 03:29:10;;;;;;;28.65;19.58;;;2.10;99.90;;;;;;5116143;28;20050;-85
2022/12/12 03:31:43;;;;;;;31.70;19.42;;;1.50;99.90;;;;;;5115605;28;20069;-86
2022/12/12 03:34:17;;;;;;;27.60;18.27;;;2.10;99.90;;;;;;5116107;28;20487;-85
2022/12/12 03:36:55;;;;;;;32.65;20.20;;;1.40;99.90;;;;;;5098784;28;20062;-85
2022/12/12 03:39:30;;;;;;;29.08;19.20;;;2.40;99.90;;;;;;5115859;28;20487;-86
2022/12/12 03:42:02;;;;;;;31.25;20.25;;;1.80;99.90;;;;;;5098482;28;20075;-85
2022/12/12 03:44:38;;;;;;;29.33;18.63;;;2.00;99.90;;;;;;5115986;28;20058;-86
2022/12/12 03:47:09;;;;;;;32.40;19.60;;;1.30;99.90;;;;;;5116231;28;20070;-86
2022/12/12 03:49:44;;;;;;;29.83;20.08;;;2.00;99.90;;;;;;5132886;27;20052;-87
2022/12/12 03:52:31;;;;;;;21.67;14.48;;;2.70;99.90;;;;;;5115675;28;20044;-86
2022/12/12 03:55:06;;;;;;;31.30;19.40;;;1.60;99.90;;;;;;5115489;28;20059;-86
2022/12/12 03:57:42;;;;;;;28.83;19.55;;;1.70;99.90;;;;;;5115901;28;20078;-86
2022/12/12 04:00:13;;;;;;;31.70;19.40;;;1.50;99.90;;;;;;5115138;28;20085;-86
2022/12/12 04:02:54;;;;;;;30.02;18.55;;;1.50;99.90;;;;;;5115260;28;20146;-87
2022/12/12 04:05:36;;;;;;;29.65;18.52;;;1.50;99.90;;;;;;5115177;28;20083;-86
2022/12/12 04:08:06;;;;;;;32.10;20.48;;;2.00;99.90;;;;;;5115835;28;20054;-86
2022/12/12 04:13:33;;;;;;;29.40;19.30;;;1.70;99.90;;;;;;5115619;28;20048;-86
2022/12/12 04:16:05;;;;;;;29.45;19.88;;;1.30;99.90;;;;;;5115066;28;20039;-86
2022/12/12 04:18:54;;;;;;;29.58;19.45;;;2.20;99.90;;;;;;5098210;28;20054;-86
2022/12/12 04:25:25;;;;;;;30.05;19.08;;;1.80;99.90;;;;;;5114068;28;20050;-86
2022/12/12 04:27:54;;;;;;;29.90;19.33;;;1.50;99.90;;;;;;5073073;28;20041;-87
2022/12/12 04:30:19;;;;;;;29.73;19.38;;;2.10;99.90;;;;;;5040040;28;20052;-87
2022/12/12 04:32:56;;;;;;;28.30;19.30;;;1.60;99.90;;;;;;5089888;28;20120;-87
2022/12/12 04:35:29;;;;;;;30.25;20.40;;;2.60;99.90;;;;;;5098322;28;20406;-87
2022/12/12 04:38:07;;;;;;;28.88;18.88;;;2.10;99.90;;;;;;5097538;28;20447;-87
2022/12/12 04:40:45;;;;;;;31.30;19.70;;;1.90;99.90;;;;;;5097936;28;20047;-86
2022/12/12 04:43:21;;;;;;;29.10;18.83;;;1.80;99.90;;;;;;5114770;28;20126;-86
2022/12/12 04:45:57;;;;;;;28.20;19.15;;;2.00;99.90;;;;;;5097504;28;20043;-86
2022/12/12 04:48:30;;;;;;;28.52;19.70;;;1.80;99.90;;;;;;5131979;27;20052;-86
2022/12/12 04:50:58;;;;;;;30.30;19.05;;;1.80;99.90;;;;;;5114400;28;20055;-86
2022/12/12 04:53:33;;;;;;;28.20;19.80;;;2.60;99.90;;;;;;5114272;28;20051;-86
2022/12/12 04:56:03;;;;;;;27.15;19.52;;;1.50;99.90;;;;;;5114414;28;20514;-86
2022/12/12 04:58:29;;;;;;;29.00;18.88;;;1.70;99.90;;;;;;5097742;28;20399;-86
2022/12/12 05:01:31;;;;;;;27.50;19.23;;;1.80;99.90;;;;;;5080091;28;20039;-87
2022/12/12 05:04:04;;;;;;;26.15;17.88;;;1.50;99.90;;;;;;5095147;28;20146;-86
2022/12/12 05:06:40;;;;;;;28.70;18.90;;;1.60;99.90;;;;;;5114193;28;20556;-86
2022/12/12 05:09:07;;;;;;;27.70;18.40;;;1.50;99.90;;;;;;5114013;28;20044;-86
2022/12/12 05:11:33;;;;;;;28.95;19.98;;;2.30;99.90;;;;;;5114296;28;20083;-86
2022/12/12 05:13:59;;;;;;;28.15;19.30;;;2.00;99.90;;;;;;5113856;28;20051;-87
2022/12/12 05:16:31;;;;;;;26.07;18.43;;;1.60;99.90;;;;;;5097176;28;20048;-86
2022/12/12 05:18:58;;;;;;;26.15;18.65;;;1.50;99.90;;;;;;5113849;28;20043;-86
2022/12/12 05:21:24;;;;;;;28.05;18.95;;;1.70;99.90;;;;;;5096793;28;20134;-86
2022/12/12 05:23:50;;;;;;;25.10;17.75;;;1.30;99.90;;;;;;5114748;28;20064;-87
2022/12/12 05:26:21;;;;;;;27.15;19.08;;;2.30;99.90;;;;;;5114288;28;20126;-86
2022/12/12 05:28:47;;;;;;;26.88;17.98;;;2.20;99.90;;;;;;5130769;27;20111;-86
2022/12/12 05:31:13;;;;;;;31.27;19.63;;;1.70;99.90;;;;;;5080224;28;20100;-86
2022/12/12 05:33:39;;;;;;;28.50;19.23;;;1.70;99.90;;;;;;5096868;28;20429;-86
2022/12/12 05:36:05;;;;;;;25.73;18.33;;;1.80;99.90;;;;;;5096299;28;20050;-86
2022/12/12 05:38:30;;;;;;;29.38;19.55;;;1.40;99.90;;;;;;5113460;28;20047;-86
2022/12/12 05:40:56;;;;;;;26.77;18.40;;;1.50;99.90;;;;;;5079487;28;20051;-87
2022/12/12 05:43:22;;;;;;;29.63;19.53;;;1.50;99.90;;;;;;5096569;28;20055;-86
2022/12/12 05:45:47;;;;;;;28.07;19.93;;;1.50;99.90;;;;;;5096472;28;20537;-87
2022/12/12 05:48:13;;;;;;;26.97;18.23;;;1.70;99.90;;;;;;5097138;28;20555;-86
2022/12/12 05:50:39;;;;;;;25.27;17.77;;;1.40;99.90;;;;;;5096354;28;20065;-86
2022/12/12 05:53:04;;;;;;;26.10;18.40;;;1.60;99.90;;;;;;5096804;28;20058;-85
2022/12/12 05:55:30;;;;;;;28.17;18.80;;;1.60;99.90;;;;;;5119237;28;20135;-86
2022/12/12 05:57:56;;;;;;;29.07;19.67;;;2.40;99.90;;;;;;5095936;28;20120;-86
2022/12/12 06:00:22;;;;;;;27.93;18.60;;;1.40;99.90;;;;;;5096304;28;20127;-86
2022/12/12 06:02:48;;;;;;;27.33;18.30;;;1.70;99.90;;;;;;5079161;28;20104;-89
2022/12/12 06:05:14;;;;;;;28.10;19.08;;;2.20;99.90;;;;;;5113350;28;20055;-86
2022/12/12 06:07:39;;;;;;;25.57;17.83;;;2.20;99.90;;;;;;5096331;28;20139;-86
2022/12/12 06:10:06;;;;;;;25.20;18.03;;;1.80;99.90;;;;;;5095198;28;20161;-88
2022/12/12 06:12:31;;;;;;;24.83;17.23;;;1.60;99.90;;;;;;5091015;28;20488;-86
2022/12/12 06:14:57;;;;;;;23.80;16.77;;;1.60;99.90;;;;;;5103237;28;20103;-87
2022/12/12 06:17:23;;;;;;;23.60;17.27;;;1.70;99.90;;;;;;5083852;28;20076;-87
2022/12/12 06:19:49;;;;;;;25.67;17.03;;;1.50;99.90;;;;;;5093879;28;20116;-88
2022/12/12 06:22:17;;;;;;;26.55;17.17;;;2.10;99.90;;;;;;5096336;28;20040;-88
2022/12/12 06:24:43;;;;;;;24.63;17.47;;;1.70;99.90;;;;;;5095937;28;20124;-89
2022/12/12 06:27:09;;;;;;;27.63;17.03;;;1.60;99.90;;;;;;5095346;28;20044;-88
2022/12/12 06:29:34;;;;;;;26.50;16.63;;;1.70;99.90;;;;;;5095777;28;20048;-87
2022/12/12 06:32:00;;;;;;;21.97;16.60;;;2.00;99.90;;;;;;5095586;28;20381;-85
2022/12/12 06:34:26;;;;;;;23.27;16.40;;;1.40;99.90;;;;;;5112424;28;20091;-85
2022/12/12 06:36:52;;;;;;;25.50;16.90;;;1.60;99.90;;;;;;5112626;28;20281;-86
2022/12/12 06:39:17;;;;;;;26.97;17.27;;;1.40;99.90;;;;;;5117717;28;20043;-84
2022/12/12 06:41:43;;;;;;;23.10;16.70;;;1.70;99.90;;;;;;5068675;28;20051;-87
2022/12/12 06:44:09;;;;;;;22.93;16.33;;;2.10;99.90;;;;;;5114598;28;20130;-88
2022/12/12 06:46:35;;;;;;;22.73;16.93;;;1.40;99.90;;;;;;5113719;28;20051;-87
2022/12/12 06:49:01;;;;;;;22.13;15.07;;;1.30;99.90;;;;;;5084035;28;20047;-83
2022/12/12 06:51:35;;;;;;;23.33;15.98;;;1.50;99.90;;;;;;5119336;28;20133;-83
2022/12/12 06:54:00;;;;;;;24.88;17.27;;;1.30;99.90;;;;;;5119696;27;20514;-85
2022/12/12 06:56:27;;;;;;;25.40;16.37;;;2.50;99.90;;;;;;5099319;28;20040;-87
2022/12/12 06:58:53;;;;;;;24.33;16.55;;;1.40;99.90;;;;;;5099825;28;20044;-87
2022/12/12 07:01:21;;;;;;;22.38;16.15;;;1.30;99.90;;;;;;5098164;28;20084;-81
2022/12/12 07:03:49;;;;;;;23.08;15.60;;;1.50;99.90;;;;;;5118966;28;20039;-82
2022/12/12 07:06:16;;;;;;;23.55;16.75;;;2.10;99.90;;;;;;5101471;28;20047;-81
2022/12/12 07:08:41;;;;;;;23.98;16.50;;;1.50;99.90;;;;;;5119947;27;20131;-81
2022/12/12 07:11:12;;;;;;;24.70;16.70;;;2.10;99.90;;;;;;5119403;27;20078;-81
2022/12/12 07:13:38;;;;;;;23.80;17.15;;;2.00;99.90;;;;;;5120326;27;20082;-80
2022/12/12 07:16:04;;;;;;;24.75;16.67;;;1.40;99.90;;;;;;5118986;28;20062;-81
2022/12/12 07:18:30;;;;;;;23.05;15.07;;;1.20;99.90;;;;;;5119229;28;20040;-80
2022/12/12 07:20:56;;;;;;;23.97;16.53;;;1.30;99.90;;;;;;5119095;28;20092;-89
2022/12/12 07:23:22;;;;;;;24.17;16.47;;;2.10;99.90;;;;;;5102533;28;20051;-80
2022/12/12 07:25:48;;;;;;;22.70;15.07;;;1.80;99.90;;;;;;5120359;27;20081;-80
2022/12/12 07:28:14;;;;;;;23.08;15.65;;;1.30;99.90;;;;;;5116452;27;20168;-80
2022/12/12 07:30:43;;;;;;;24.00;16.35;;;1.40;99.90;;;;;;5098381;28;20051;-80
2022/12/12 07:33:10;;;;;;;24.52;16.08;;;2.20;99.90;;;;;;5099556;28;20050;-81
2022/12/12 07:35:36;;;;;;;23.25;16.85;;;1.20;99.90;;;;;;5098699;28;20131;-80
2022/12/12 07:38:03;;;;;;;21.43;15.70;;;1.40;99.90;;;;;;5099390;28;20123;-81
2022/12/12 07:40:28;;;;;;;23.38;16.63;;;1.30;99.90;;;;;;5099391;28;20047;-80
2022/12/12 07:42:54;;;;;;;23.63;16.97;;;2.00;99.90;;;;;;5098611;28;20048;-80
2022/12/12 07:45:20;;;;;;;25.93;18.47;;;1.30;99.90;;;;;;5098172;28;20097;-81
2022/12/12 07:47:45;;;;;;;23.30;15.67;;;2.00;99.90;;;;;;5099548;28;20503;-81
2022/12/12 07:50:11;;;;;;;26.30;15.93;;;2.10;99.90;;;;;;5098175;28;20471;-82
2022/12/12 07:52:37;;;;;;;24.37;16.40;;;2.50;99.90;;;;;;5099448;28;20091;-82
2022/12/12 07:55:03;;;;;;;24.37;15.30;;;1.50;99.90;;;;;;5099325;28;20289;-82
2022/12/12 07:57:30;;;;;;;23.42;15.77;;;1.40;99.90;;;;;;5099469;28;20079;-81
2022/12/12 07:59:57;;;;;;;22.20;15.52;;;1.70;99.90;;;;;;5096315;28;20070;-81
2022/12/12 08:02:23;;;;;;;23.27;15.88;;;1.50;99.90;;;;;;5094730;28;20055;-81
2022/12/12 08:04:48;;;;;;;25.58;17.30;;;1.90;99.90;;;;;;5095154;28;20040;-81
2022/12/12 08:07:14;;;;;;;24.83;15.77;;;1.90;99.90;;;;;;5094728;28;20059;-82
2022/12/12 08:09:40;;;;;;;22.13;16.10;;;1.40;99.90;;;;;;5077890;28;20059;-81
2022/12/12 08:12:06;;;;;;;21.87;15.70;;;1.50;99.90;;;;;;5077612;28;20071;-81
2022/12/12 08:14:31;;;;;;;23.17;16.43;;;1.50;99.90;;;;;;5095224;28;20048;-81
2022/12/12 08:16:58;;;;;;;23.67;15.37;;;2.30;99.90;;;;;;5095949;28;20321;-81
2022/12/12 08:19:23;;;;;;;24.17;16.58;;;2.30;99.90;;;;;;5095629;28;20103;-82
2022/12/12 08:21:49;;;;;;;22.67;15.77;;;2.10;99.90;;;;;;5095977;28;20040;-81
2022/12/12 08:24:15;;;;;;;23.60;16.83;;;1.90;99.90;;;;;;5094381;28;20079;-81
2022/12/12 08:26:42;;;;;;;23.13;16.17;;;1.60;99.90;;;;;;5094791;28;20044;-81
2022/12/12 08:29:09;;;;;;;24.55;17.15;;;1.30;99.90;;;;;;5094215;28;20060;-82
2022/12/12 08:31:36;;;;;;;24.65;16.33;;;1.20;99.90;;;;;;5094801;28;20048;-81
2022/12/12 08:34:02;;;;;;;22.35;16.25;;;1.40;99.90;;;;;;5095591;28;20123;-81
2022/12/12 08:36:30;;;;;;;26.73;16.83;;;1.50;99.90;;;;;;5077466;28;20131;-81
2022/12/12 08:38:57;;;;;;;23.40;17.02;;;1.50;99.90;;;;;;5094561;28;20052;-81
2022/12/12 08:41:24;;;;;;;22.67;16.08;;;2.00;99.90;;;;;;5095190;28;20423;-81
2022/12/12 08:43:50;;;;;;;23.60;16.65;;;1.60;99.90;;;;;;5094505;28;20434;-81
2022/12/12 08:46:18;;;;;;;22.97;15.83;;;1.60;99.90;;;;;;5095243;28;20051;-81
2022/12/12 08:48:44;;;;;;;23.13;16.17;;;2.30;99.90;;;;;;5094358;28;20297;-81
2022/12/12 08:51:10;;;;;;;22.92;15.90;;;1.30;99.90;;;;;;5093839;28;20493;-82
2022/12/12 08:53:35;;;;;;;22.27;15.77;;;1.50;99.90;;;;;;5095334;28;20050;-81
2022/12/12 08:56:01;;;;;;;26.00;17.03;;;2.30;99.90;;;;;;5094233;28;20392;-81
2022/12/12 08:58:27;;;;;;;25.43;16.63;;;1.80;99.90;;;;;;5094023;28;20044;-81
2022/12/12 09:00:52;;;;;;;24.23;16.60;;;1.30;99.90;;;;;;5095050;28;20040;-81
2022/12/12 09:03:18;;;;;;;23.97;17.37;;;1.60;99.90;;;;;;5094909;28;20579;-81
2022/12/12 09:05:45;;;;;;;24.33;16.90;;;2.00;99.90;;;;;;5095081;28;20071;-81
2022/12/12 09:08:11;;;;;;;22.48;16.27;;;1.60;99.90;;;;;;5093781;28;20047;-82
2022/12/12 09:10:37;;;;;;;23.08;16.33;;;1.70;99.90;;;;;;5093061;28;20063;-81
2022/12/12 09:13:05;;;;;;;25.05;17.27;;;2.20;99.90;;;;;;5094838;28;20502;-81
2022/12/12 09:15:33;;;;;;;23.13;16.80;;;1.70;99.90;;;;;;5093766;28;20056;-81
2022/12/12 09:17:58;;;;;;;25.38;16.80;;;1.70;99.90;;;;;;5093766;28;20055;-81
2022/12/12 09:20:24;;;;;;;26.23;16.57;;;2.20;99.90;;;;;;5076653;28;20048;-81
2022/12/12 09:22:50;;;;;;;25.13;16.53;;;1.70;99.90;;;;;;5094374;28;20048;-80
2022/12/12 09:25:16;;;;;;;22.93;16.73;;;1.70;99.90;;;;;;5094728;28;20071;-82
2022/12/12 09:27:42;;;;;;;26.83;18.17;;;1.60;99.90;;;;;;5060505;28;20063;-80
2022/12/12 09:30:08;;;;;;;25.23;17.00;;;1.80;99.90;;;;;;5095628;28;20694;-81
2022/12/12 09:32:34;;;;;;;23.25;16.77;;;1.80;99.90;;;;;;5094826;28;20097;-81
2022/12/12 09:35:00;;;;;;;23.83;16.90;;;2.30;99.90;;;;;;5094439;28;20047;-81
2022/12/12 09:37:27;;;;;;;25.93;16.20;;;1.90;99.90;;;;;;5094520;28;20048;-81
2022/12/12 09:39:53;;;;;;;24.63;16.40;;;1.50;99.90;;;;;;5093106;28;20052;-81
2022/12/12 09:42:22;;;;;;;26.13;17.60;;;1.90;99.90;;;;;;5093121;28;20051;-81
2022/12/12 09:44:50;;;;;;;25.75;17.25;;;1.80;99.90;;;;;;5093295;28;20039;-81
2022/12/12 09:47:39;;;;;;;25.08;17.15;;;2.60;99.90;;;;;;5076498;28;20050;-81
2022/12/12 09:50:18;;;;;;;22.65;16.55;;;1.90;99.90;;;;;;5093265;28;20128;-80
2022/12/12 09:52:44;;;;;;;24.55;16.58;;;1.90;99.90;;;;;;5093564;28;20056;-80
2022/12/12 09:55:15;;;;;;;24.17;16.55;;;1.90;99.90;;;;;;5094241;28;20126;-81
2022/12/12 09:57:50;;;;;;;24.25;16.30;;;1.90;99.90;;;;;;5094020;28;20109;-81
2022/12/12 10:00:18;;;;;;;24.60;17.88;;;1.80;99.90;;;;;;5093782;28;20040;-82
2022/12/12 10:03:05;;;;;;;25.08;16.75;;;1.60;99.90;;;;;;5094011;28;20044;-81
2022/12/12 10:05:48;;;;;;;24.15;17.38;;;1.90;99.90;;;;;;5075941;28;20055;-81
2022/12/12 10:08:25;;;;;;;24.13;17.05;;;1.90;99.90;;;;;;5092655;28;20048;-81
2022/12/12 10:10:56;;;;;;;24.17;16.83;;;2.00;99.90;;;;;;5093547;28;20098;-81
2022/12/12 10:13:28;;;;;;;28.63;19.13;;;2.50;99.90;;;;;;5092754;28;20052;-81
2022/12/12 10:16:07;;;;;;;34.63;23.52;;;2.00;99.90;;;;;;5092745;28;20087;-81
2022/12/12 10:18:49;;;;;;;26.70;20.58;;;2.00;99.90;;;;;;5093610;28;20047;-81
2022/12/12 10:21:23;;;;;;;30.83;21.00;;;2.10;99.90;;;;;;5093742;28;20043;-81
2022/12/12 10:24:38;;;;;;;25.33;17.92;;;2.40;99.90;;;;;;5092244;28;20091;-81
2022/12/12 10:27:12;;;;;;;26.67;18.42;;;2.20;99.90;;;;;;5088466;28;20113;-80
2022/12/12 10:29:43;;;;;;;28.27;19.20;;;2.30;99.90;;;;;;5093145;28;20055;-81
2022/12/12 10:32:43;;;;;;;42.30;26.83;;;2.30;99.90;;;;;;5093613;28;20055;-80
2022/12/12 10:35:37;;;;;;;83.97;50.75;;;2.10;99.90;;;;;;5093595;28;20053;-80
2022/12/12 10:38:56;;;;;;;54.85;34.97;;;2.70;99.90;;;;;;5092196;28;20048;-80
2022/12/12 10:41:40;;;;;;;34.60;22.85;;;2.20;99.90;;;;;;5075323;28;20460;-80
2022/12/12 10:44:44;;;;;;;31.05;21.35;;;2.20;99.90;;;;;;5093440;28;20105;-80
2022/12/12 10:47:11;;;;;;;37.90;20.75;;;2.20;99.90;;;;;;5081661;28;20140;-80
2022/12/12 10:49:39;;;;;;;29.17;19.20;;;2.20;99.90;;;;;;5092113;28;20114;-81
2022/12/12 10:52:13;;;;;;;43.38;30.42;;;2.30;99.90;;;;;;5093549;28;20044;-80
2022/12/12 10:54:46;;;;;;;42.67;29.80;;;2.20;99.90;;;;;;5093153;28;20102;-80
2022/12/12 10:57:33;;;;;;;29.65;20.25;;;2.20;99.90;;;;;;5093333;28;20036;-80
2022/12/12 10:59:59;;;;;;;34.13;21.23;;;2.20;99.90;;;;;;5092228;28;20052;-80
2022/12/12 11:02:38;;;;;;;28.52;19.70;;;2.10;99.90;;;;;;5092039;28;20059;-81
2022/12/12 11:05:15;;;;;;;35.95;25.63;;;2.30;99.90;;;;;;5093176;28;20052;-80
2022/12/12 11:07:47;;;;;;;29.98;20.70;;;2.40;99.90;;;;;;5092058;28;20044;-80
2022/12/12 11:10:23;;;;;;;31.05;21.35;;;2.40;99.90;;;;;;5092944;28;20036;-81
2022/12/12 11:13:01;;;;;;;32.88;22.60;;;2.40;99.90;;;;;;5092232;28;20055;-80
2022/12/12 11:15:50;;;;;;;33.97;23.58;;;2.40;99.90;;;;;;5091966;28;20051;-81
2022/12/12 11:18:19;;;;;;;30.42;21.63;;;2.50;99.90;;;;;;5091883;28;20403;-80
2022/12/12 11:20:47;;;;;;;58.60;38.63;;;2.50;99.90;;;;;;5092851;28;20044;-80
2022/12/12 11:23:21;;;;;;;36.45;25.30;;;2.50;99.90;;;;;;5093092;28;20048;-80
2022/12/12 11:25:57;;;;;;;32.35;22.80;;;2.50;99.90;;;;;;5092940;28;20108;-80
2022/12/12 11:28:26;;;;;;;27.70;20.23;;;2.50;99.90;;;;;;5093148;28;20109;-80
2022/12/12 11:30:54;;;;;;;29.55;20.95;;;2.80;99.90;;;;;;5093147;28;20076;-80
2022/12/12 11:33:45;;;;;;;29.98;20.85;;;2.50;99.90;;;;;;5091915;28;20048;-80
2022/12/12 11:36:16;;;;;;;28.88;19.15;;;2.50;99.90;;;;;;5095682;28;20403;-80
2022/12/12 11:38:54;;;;;;;27.58;20.73;;;2.50;99.90;;;;;;5096501;28;20048;-80
2022/12/12 11:41:21;;;;;;;26.23;19.13;;;2.50;99.90;;;;;;5096542;28;20044;-80
2022/12/12 11:43:46;;;;;;;26.42;18.70;;;2.50;99.90;;;;;;5095449;28;20095;-80
2022/12/12 11:46:15;;;;;;;27.50;18.27;;;2.40;99.90;;;;;;5095696;28;20095;-80
2022/12/12 11:48:53;;;;;;;24.23;17.83;;;2.40;99.90;;;;;;5096296;28;20492;-80
2022/12/12 11:51:42;;;;;;;27.55;18.23;;;2.40;99.90;;;;;;5096553;28;20039;-80
2022/12/12 11:54:30;;;;;;;26.83;18.38;;;2.30;99.90;;;;;;5095786;28;20044;-80
2022/12/12 11:57:34;;;;;;;25.70;17.60;;;2.30;99.90;;;;;;5095455;28;20083;-81
2022/12/12 12:00:14;;;;;;;26.88;18.10;;;2.30;99.90;;;;;;5084818;28;20056;-81
2022/12/12 12:03:17;;;;;;;24.77;17.40;;;2.30;99.90;;;;;;5096164;28;20052;-81
2022/12/12 12:06:27;;;;;;;27.35;17.90;;;2.30;99.90;;;;;;5095959;28;20125;-80
2022/12/12 12:09:20;;;;;;;29.48;18.05;;;2.40;99.90;;;;;;5094943;28;20076;-81
2022/12/12 12:11:52;;;;;;;27.38;19.40;;;2.40;99.90;;;;;;5094408;28;20064;-81
2022/12/12 12:14:26;;;;;;;26.95;17.50;;;2.40;99.90;;;;;;5094901;28;20171;-81
2022/12/12 12:17:23;;;;;;;25.50;17.55;;;2.50;99.90;;;;;;5094851;28;20139;-81
2022/12/12 12:19:54;;;;;;;;;;;2.50;99.90;;;;;;5095279;28;20127;-81
2022/12/12 12:22:38;;;;;;;22.88;16.95;;;2.50;99.90;;;;;;5094937;28;20292;-81
2022/12/12 12:25:07;;;;;;;23.80;15.25;;;2.50;99.90;;;;;;5078129;28;20099;-81
2022/12/12 12:27:59;;;;;;;21.40;14.68;;;2.50;99.90;;;;;;5094594;28;20048;-81
2022/12/12 12:30:52;;;;;;;24.38;15.65;;;2.60;99.90;;;;;;5094865;28;20419;-81
2022/12/12 12:33:41;;;;;;;23.77;14.38;;;2.60;99.90;;;;;;5086877;28;20052;-81
2022/12/12 12:36:32;;;;;;;18.77;13.35;;;2.60;99.90;;;;;;5094668;28;20545;-81
2022/12/12 12:39:20;;;;;;;19.05;12.43;;;2.60;99.90;;;;;;5095851;28;20385;-81
2022/12/12 12:42:21;;;;;;;22.63;14.35;;;2.60;99.90;;;;;;5094115;28;20105;-81
2022/12/12 12:44:52;;;;;;;19.60;14.63;;;2.60;99.90;;;;;;5077461;28;20051;-81
2022/12/12 12:47:43;;;;;;;18.92;13.65;;;2.60;99.90;;;;;;5093890;28;20048;-81
2022/12/12 12:50:21;;;;;;;20.75;13.32;;;2.60;99.90;;;;;;5095580;28;20075;-81
2022/12/12 12:53:27;;;;;;;21.58;15.15;;;2.60;99.90;;;;;;5095203;28;20140;-81
2022/12/12 12:55:58;;;;;;;20.83;15.20;;;2.60;99.90;;;;;;5094195;28;20502;-81
2022/12/12 12:58:29;;;;;;;25.85;19.55;;;2.60;99.90;;;;;;5094348;28;20087;-81
2022/12/12 13:01:32;;;;;;;23.17;16.50;;;2.60;99.90;;;;;;5093929;28;20052;-81
2022/12/12 13:04:10;;;;;;;19.60;13.98;;;2.60;99.90;;;;;;5093443;28;20117;-80
2022/12/12 13:06:52;;;;;;;19.33;12.77;;;2.70;99.90;;;;;;5093952;28;20463;-82
2022/12/12 13:09:31;;;;;;;18.08;12.60;;;2.60;99.90;;;;;;5094046;28;20059;-81
2022/12/12 13:12:28;;;;;;;20.15;13.05;;;2.70;99.90;;;;;;5093203;28;20097;-80
2022/12/12 13:14:58;;;;;;;22.58;14.63;;;2.70;99.90;;;;;;5094749;28;20109;-80